createdAt,value
2023-02-27T00:01:03.633Z,100502.75
2023-02-27T00:03:31.486Z,100511.44
2023-02-27T00:05:58.983Z,100499.31
2023-02-27T00:08:26.824Z,100505.44
2023-02-27T00:10:54.666Z,100511.44
2023-02-27T00:13:22.144Z,100514.87
2023-02-27T00:15:50.519Z,100461.38
2023-02-27T00:18:18.676Z,100529.75
2023-02-27T00:20:46.670Z,100534.91
2023-02-27T00:23:15.876Z,100525.56
2023-02-27T00:25:44.011Z,100504.69
2023-02-27T00:28:11.579Z,100522.47
2023-02-27T00:30:39.917Z,100532.44
2023-02-27T00:33:07.963Z,100537.75
2023-02-27T00:35:35.443Z,100542.09
2023-02-27T00:38:03.049Z,100539.09
2023-02-27T00:40:30.900Z,100494.87
2023-02-27T00:42:58.425Z,100501.72
2023-02-27T00:45:25.870Z,100555.31
2023-02-27T00:47:53.732Z,100557.06
2023-02-27T00:50:21.440Z,100557.06
2023-02-27T00:52:48.894Z,100569.94
2023-02-27T00:55:16.675Z,100566.75
2023-02-27T00:57:44.266Z,100562.50
2023-02-27T01:00:12.647Z,100547.56
2023-02-27T01:02:40.680Z,100561.81
2023-02-27T01:05:09.215Z,100573.03
2023-02-27T01:07:37.679Z,100577.28
2023-02-27T01:10:07.356Z,100592.06
2023-02-27T01:12:34.761Z,100592.81
2023-02-27T01:15:02.671Z,100592.75
2023-02-27T01:17:30.554Z,100596.25
2023-02-27T01:19:58.220Z,100546.69
2023-02-27T01:22:26.169Z,100599.44
2023-02-27T01:24:53.946Z,100608.91
2023-02-27T01:27:21.574Z,100605.63
2023-02-27T01:29:49.302Z,100611.50
2023-02-27T01:32:17.172Z,100596.50
2023-02-27T01:34:44.803Z,100616.09
2023-02-27T01:37:12.506Z,100615.69
2023-02-27T01:39:43.350Z,100624.91
2023-02-27T01:42:19.970Z,100633.69
2023-02-27T01:45:10.464Z,100638.88
2023-02-27T01:47:48.514Z,100641.47
2023-02-27T01:50:18.059Z,100652.81
2023-02-27T01:52:51.792Z,100657.84
2023-02-27T01:55:20.358Z,100656.16
2023-02-27T01:57:49.453Z,100653.44
2023-02-27T02:00:17.432Z,100661.34
2023-02-27T02:03:22.095Z,100661.44
2023-02-27T02:05:55.192Z,100675.16
2023-02-27T02:08:26.732Z,100667.47
2023-02-27T02:10:56.729Z,100664.09
2023-02-27T02:13:25.139Z,100661.59
2023-02-27T02:16:10.427Z,100669.53
2023-02-27T02:18:47.564Z,100670.50
2023-02-27T02:21:15.006Z,100690.16
2023-02-27T02:23:45.475Z,100681.56
2023-02-27T02:26:34.905Z,100690.00
2023-02-27T02:29:23.767Z,100691.16
2023-02-27T02:32:24.343Z,100698.09
2023-02-27T02:34:55.155Z,100690.53
2023-02-27T02:37:59.260Z,100701.75
2023-02-27T02:40:45.001Z,100695.72
2023-02-27T02:43:20.588Z,100705.34
2023-02-27T02:45:53.872Z,100693.44
2023-02-27T02:48:36.308Z,100699.44
2023-02-27T02:51:32.586Z,100705.19
2023-02-27T02:54:17.897Z,100696.62
2023-02-27T02:56:56.948Z,100708.06
2023-02-27T02:59:33.274Z,100714.09
2023-02-27T03:02:06.305Z,100710.66
2023-02-27T03:04:46.859Z,100720.72
2023-02-27T03:07:29.799Z,100725.50
2023-02-27T03:10:09.602Z,100719.28
2023-02-27T03:12:42.851Z,100728.94
2023-02-27T03:15:27.110Z,100722.69
2023-02-27T03:18:08.830Z,100733.38
2023-02-27T03:20:42.916Z,100741.34
2023-02-27T03:23:17.378Z,100679.78
2023-02-27T03:25:46.431Z,100728.31
2023-02-27T03:28:19.892Z,100742.19
2023-02-27T03:30:55.342Z,100738.03
2023-02-27T03:33:29.475Z,100716.09
2023-02-27T03:36:03.291Z,100745.19
2023-02-27T03:39:10.826Z,100731.34
2023-02-27T03:41:45.374Z,100696.81
2023-02-27T03:44:50.533Z,100735.41
2023-02-27T03:47:20.280Z,100758.16
2023-02-27T03:49:51.174Z,100759.06
2023-02-27T03:52:26.050Z,100751.38
2023-02-27T03:54:59.960Z,100710.75
2023-02-27T03:57:28.232Z,100760.25
2023-02-27T03:59:56.060Z,100771.47
2023-02-27T04:02:24.412Z,100775.78
2023-02-27T04:04:52.769Z,100781.88
2023-02-27T04:07:52.472Z,100771.59
2023-02-27T04:10:29.622Z,100774.25
2023-02-27T04:13:18.987Z,100777.06
2023-02-27T04:15:52.337Z,100777.06
2023-02-27T04:18:57.085Z,100780.25
2023-02-27T04:21:43.366Z,100778.88
2023-02-27T04:24:23.088Z,100785.72
2023-02-27T04:27:21.556Z,100804.91
2023-02-27T04:30:07.823Z,100810.09
2023-02-27T04:32:45.849Z,100800.00
2023-02-27T04:35:20.277Z,100797.41
2023-02-27T04:37:52.781Z,100795.81
2023-02-27T04:40:43.819Z,100795.03
2023-02-27T04:43:14.881Z,100803.72
2023-02-27T04:45:45.544Z,100808.25
2023-02-27T04:48:18.782Z,100818.34
2023-02-27T04:51:00.189Z,100826.91
2023-02-27T04:53:34.753Z,100833.78
2023-02-27T04:56:10.757Z,100838.25
2023-02-27T04:58:45.902Z,100843.50
2023-02-27T05:01:29.929Z,100837.56
2023-02-27T05:04:00.481Z,100842.81
2023-02-27T05:06:32.540Z,100843.31
2023-02-27T05:09:20.332Z,100846.81
2023-02-27T05:12:25.479Z,100845.12
2023-02-27T05:15:27.151Z,100848.56
2023-02-27T05:18:04.365Z,100846.16
2023-02-27T05:21:10.378Z,100836.72
2023-02-27T05:23:58.930Z,100838.72
2023-02-27T05:27:12.598Z,100850.69
2023-02-27T05:30:13.858Z,100867.06
2023-02-27T05:33:17.567Z,100876.53
2023-02-27T05:35:54.832Z,100895.47
2023-02-27T05:38:36.924Z,100902.34
2023-02-27T05:41:13.035Z,100911.91
2023-02-27T05:43:51.801Z,100915.34
2023-02-27T05:46:29.303Z,100915.22
2023-02-27T05:49:03.049Z,100931.66
2023-02-27T05:51:33.596Z,100938.53
2023-02-27T05:54:13.770Z,100930.44
2023-02-27T05:56:47.798Z,100886.50
2023-02-27T05:59:30.601Z,100950.53
2023-02-27T06:01:58.053Z,100962.47
2023-02-27T06:04:25.846Z,100967.56
2023-02-27T06:06:54.073Z,100919.34
2023-02-27T06:09:22.193Z,100951.66
2023-02-27T06:11:49.914Z,100980.34
2023-02-27T06:14:17.352Z,100927.44
2023-02-27T06:16:44.893Z,100987.13
2023-02-27T06:19:12.795Z,100990.16
2023-02-27T06:21:40.241Z,100991.47
2023-02-27T06:24:07.940Z,101010.22
2023-02-27T06:26:35.793Z,101008.50
2023-02-27T06:29:03.570Z,101011.78
2023-02-27T06:31:31.097Z,101018.72
2023-02-27T06:33:58.838Z,100965.81
2023-02-27T06:36:26.680Z,100961.88
2023-02-27T06:38:54.491Z,101028.47
2023-02-27T06:41:22.247Z,100973.66
2023-02-27T06:43:49.619Z,101034.66
2023-02-27T06:46:17.086Z,101041.41
2023-02-27T06:48:45.619Z,101050.97
2023-02-27T06:51:15.231Z,101002.28
2023-02-27T06:53:46.685Z,101062.78
2023-02-27T06:56:15.057Z,101064.37
2023-02-27T06:58:43.386Z,101038.41
2023-02-27T07:01:13.621Z,101067.81
2023-02-27T07:03:42.469Z,101066.78
2023-02-27T07:06:12.123Z,101063.28
2023-02-27T07:09:01.676Z,101067.69
2023-02-27T07:11:27.732Z,101063.63
2023-02-27T07:13:55.262Z,101070.84
2023-02-27T07:16:23.230Z,101069.19
2023-02-27T07:18:51.098Z,101008.75
2023-02-27T07:21:18.572Z,101080.22
2023-02-27T07:23:46.270Z,101082.88
2023-02-27T07:26:14.074Z,101089.94
2023-02-27T07:28:41.504Z,101098.63
2023-02-27T07:31:09.060Z,101101.81
2023-02-27T07:33:37.089Z,101071.53
2023-02-27T07:36:04.875Z,101060.56
2023-02-27T07:38:33.057Z,101114.47
2023-02-27T07:41:01.240Z,101129.31
2023-02-27T07:43:28.720Z,101132.37
2023-02-27T07:45:56.245Z,101132.28
2023-02-27T07:48:24.265Z,101138.06
2023-02-27T07:50:51.764Z,101088.69
2023-02-27T07:53:19.713Z,101143.88
2023-02-27T07:55:47.844Z,101135.31
2023-02-27T07:58:15.669Z,101132.88
2023-02-27T08:00:43.375Z,101126.94
2023-02-27T08:03:11.271Z,101110.91
2023-02-27T08:05:38.758Z,101105.00
2023-02-27T08:08:06.616Z,101114.75
2023-02-27T08:10:34.713Z,101112.66
2023-02-27T08:13:02.271Z,101117.31
2023-02-27T08:15:29.737Z,101114.63
2023-02-27T08:17:58.383Z,101110.44
2023-02-27T08:20:25.977Z,101114.69
2023-02-27T08:22:53.477Z,101095.78
2023-02-27T08:25:21.540Z,101099.09
2023-02-27T08:27:49.282Z,101103.19
2023-02-27T08:30:17.146Z,101105.25
2023-02-27T08:32:45.996Z,101107.75
2023-02-27T08:35:13.543Z,101123.69
2023-02-27T08:37:41.087Z,101108.88
2023-02-27T08:40:11.016Z,101124.59
2023-02-27T08:42:39.704Z,101048.34
2023-02-27T08:45:08.357Z,101118.78
2023-02-27T08:47:36.277Z,101120.81
2023-02-27T08:50:06.127Z,101121.09
2023-02-27T08:52:34.056Z,101133.28
2023-02-27T08:55:01.848Z,101128.47
2023-02-27T08:57:29.515Z,101090.34
2023-02-27T08:59:57.227Z,101134.03
2023-02-27T09:02:26.381Z,101131.41
2023-02-27T09:04:53.899Z,101147.28
2023-02-27T09:07:21.362Z,101136.25
2023-02-27T09:09:51.326Z,101091.13
2023-02-27T09:12:18.932Z,101145.66
2023-02-27T09:14:46.347Z,101151.69
2023-02-27T09:17:14.081Z,101100.41
2023-02-27T09:19:41.915Z,101155.25
2023-02-27T09:22:09.387Z,101165.53
2023-02-27T09:24:37.128Z,101115.69
2023-02-27T09:27:04.906Z,101161.31
2023-02-27T09:29:32.604Z,101155.87
2023-02-27T09:32:00.455Z,101159.88
2023-02-27T09:34:29.669Z,101163.47
2023-02-27T09:37:01.198Z,101167.94
2023-02-27T09:39:30.060Z,101179.22
2023-02-27T09:42:11.702Z,101121.91
2023-02-27T09:44:47.120Z,101180.06
2023-02-27T09:47:25.792Z,101186.34
2023-02-27T09:49:59.608Z,101187.50
2023-02-27T09:52:29.487Z,101180.81
2023-02-27T09:54:57.803Z,101145.31
2023-02-27T09:57:33.938Z,101137.81
2023-02-27T10:00:15.885Z,101203.28
2023-02-27T10:03:07.121Z,101197.66
2023-02-27T10:06:02.217Z,101210.34
2023-02-27T10:08:38.795Z,101205.28
2023-02-27T10:11:14.515Z,101211.09
2023-02-27T10:13:54.218Z,101205.97
2023-02-27T10:16:22.652Z,101213.41
2023-02-27T10:18:53.180Z,101162.84
2023-02-27T10:21:25.500Z,101209.47
2023-02-27T10:23:59.523Z,101213.06
2023-02-27T10:26:31.202Z,101208.16
2023-02-27T10:29:11.210Z,101208.72
2023-02-27T10:31:39.108Z,101218.19
2023-02-27T10:34:12.371Z,101177.34
2023-02-27T10:36:41.196Z,101225.69
2023-02-27T10:39:16.840Z,101221.78
2023-02-27T10:41:46.728Z,101185.16
2023-02-27T10:44:18.764Z,101214.16
2023-02-27T10:46:49.560Z,101220.47
2023-02-27T10:49:22.418Z,101222.31
2023-02-27T10:52:14.736Z,101171.16
2023-02-27T10:54:45.862Z,101234.88
2023-02-27T10:57:33.271Z,101220.47
2023-02-27T11:00:06.911Z,101225.31
2023-02-27T11:02:37.406Z,101219.97
2023-02-27T11:05:07.851Z,101214.16
2023-02-27T11:07:45.462Z,101202.84
2023-02-27T11:10:13.689Z,101221.03
2023-02-27T11:12:43.843Z,101205.72
2023-02-27T11:15:14.348Z,101165.00
2023-02-27T11:17:43.268Z,101210.06
2023-02-27T11:20:43.502Z,101210.72
2023-02-27T11:23:17.648Z,101206.81
2023-02-27T11:25:45.489Z,101219.87
2023-02-27T11:28:21.309Z,101213.88
2023-02-27T11:31:22.646Z,101214.91
2023-02-27T11:33:56.157Z,101212.63
2023-02-27T11:36:40.769Z,101217.56
2023-02-27T11:39:26.473Z,101213.37
2023-02-27T11:41:56.807Z,101201.16
2023-02-27T11:44:38.843Z,101210.50
2023-02-27T11:47:23.106Z,101224.81
2023-02-27T11:50:36.820Z,101188.59
2023-02-27T11:53:31.080Z,101221.69
2023-02-27T11:56:03.341Z,101232.69
2023-02-27T11:58:42.603Z,101224.66
2023-02-27T12:01:23.446Z,101228.97
2023-02-27T12:04:20.555Z,101246.59
2023-02-27T12:06:57.396Z,101193.50
2023-02-27T12:10:00.700Z,101240.16
2023-02-27T12:12:47.879Z,101232.31
2023-02-27T12:15:15.524Z,101241.09
2023-02-27T12:17:56.904Z,101241.03
2023-02-27T12:20:38.072Z,101241.34
2023-02-27T12:23:28.505Z,101244.28
2023-02-27T12:26:07.896Z,101242.19
2023-02-27T12:28:49.081Z,101243.59
2023-02-27T12:32:10.596Z,101235.56
2023-02-27T12:34:43.037Z,101190.97
2023-02-27T12:37:21.427Z,101244.94
2023-02-27T12:39:50.536Z,101193.34
2023-02-27T12:42:43.500Z,101199.50
2023-02-27T12:45:26.834Z,101252.94
2023-02-27T12:48:10.162Z,101254.53
2023-02-27T12:51:17.303Z,101251.94
2023-02-27T12:53:53.878Z,101268.38
2023-02-27T12:56:25.792Z,101214.00
2023-02-27T12:59:30.846Z,101262.56
2023-02-27T13:02:18.940Z,101267.69
2023-02-27T13:04:53.191Z,101270.75
2023-02-27T13:07:33.667Z,101273.34
2023-02-27T13:10:33.370Z,101263.75
2023-02-27T13:13:10.803Z,101274.16
2023-02-27T13:16:03.579Z,101282.72
2023-02-27T13:18:40.643Z,101279.66
2023-02-27T13:21:18.227Z,101283.75
2023-02-27T13:24:14.053Z,101285.44
2023-02-27T13:26:47.715Z,101293.91
2023-02-27T13:29:17.289Z,101278.81
2023-02-27T13:32:09.723Z,101282.53
2023-02-27T13:34:52.889Z,101279.06
2023-02-27T13:37:20.788Z,101288.44
2023-02-27T13:39:52.702Z,101280.41
2023-02-27T13:42:26.666Z,101291.00
2023-02-27T13:44:58.659Z,101278.31
2023-02-27T13:47:50.098Z,101288.06
2023-02-27T13:50:17.530Z,101281.81
2023-02-27T13:52:46.990Z,101282.34
2023-02-27T13:55:37.757Z,101283.88
2023-02-27T13:58:05.780Z,101235.44
2023-02-27T14:00:37.868Z,101285.31
2023-02-27T14:03:28.232Z,101285.41
2023-02-27T14:05:59.294Z,101283.88
2023-02-27T14:08:29.739Z,101221.81
2023-02-27T14:11:15.860Z,101275.00
2023-02-27T14:13:49.902Z,101283.34
2023-02-27T14:16:39.999Z,101271.47
2023-02-27T14:19:19.668Z,101270.78
2023-02-27T14:22:01.085Z,101279.56
2023-02-27T14:24:38.184Z,101271.16
2023-02-27T14:27:17.981Z,101275.44
2023-02-27T14:29:50.738Z,101226.00
2023-02-27T14:32:31.501Z,101283.09
2023-02-27T14:35:01.069Z,101293.88
2023-02-27T14:37:30.685Z,101293.63
2023-02-27T14:40:03.249Z,101290.28
2023-02-27T14:42:47.999Z,101255.81
2023-02-27T14:45:21.323Z,101302.00
2023-02-27T14:47:51.917Z,101305.19
2023-02-27T14:50:32.377Z,101313.12
2023-02-27T14:53:01.664Z,101306.59
2023-02-27T14:55:35.588Z,101252.62
2023-02-27T14:58:24.854Z,101308.16
2023-02-27T15:00:55.522Z,101306.50
2023-02-27T15:03:32.400Z,101315.28
2023-02-27T15:06:03.066Z,101319.38
2023-02-27T15:08:38.796Z,101322.88
2023-02-27T15:11:08.491Z,101326.19
2023-02-27T15:13:39.274Z,101277.03
2023-02-27T15:16:20.782Z,101323.84
2023-02-27T15:19:13.293Z,101346.06
2023-02-27T15:21:44.907Z,101343.91
2023-02-27T15:24:31.165Z,101342.88
2023-02-27T15:27:07.349Z,101294.59
2023-02-27T15:29:39.739Z,101339.19
2023-02-27T15:32:17.848Z,101344.31
2023-02-27T15:34:46.918Z,101338.00
2023-02-27T15:37:21.111Z,101274.97
2023-02-27T15:39:51.244Z,101354.19
2023-02-27T15:42:21.834Z,101361.34
2023-02-27T15:44:50.330Z,101348.69
2023-02-27T15:47:30.439Z,101355.81
2023-02-27T15:50:26.217Z,101357.72
2023-02-27T15:53:09.713Z,101362.50
2023-02-27T15:55:40.774Z,101319.69
2023-02-27T15:58:21.182Z,101365.66
2023-02-27T16:00:50.163Z,101353.31
2023-02-27T16:03:23.008Z,101354.59
2023-02-27T16:05:53.772Z,101369.00
2023-02-27T16:08:21.657Z,101356.28
2023-02-27T16:10:51.038Z,101369.78
2023-02-27T16:13:27.816Z,101384.88
2023-02-27T16:16:07.077Z,101381.12
2023-02-27T16:18:55.708Z,101388.78
2023-02-27T16:21:28.676Z,101402.56
2023-02-27T16:24:20.822Z,101399.50
2023-02-27T16:26:52.446Z,101400.03
2023-02-27T16:29:22.908Z,101412.19
2023-02-27T16:31:56.188Z,101416.97
2023-02-27T16:34:46.632Z,101414.47
2023-02-27T16:37:31.120Z,101332.69
2023-02-27T16:39:58.885Z,101424.59
2023-02-27T16:42:26.723Z,101427.22
2023-02-27T16:44:54.414Z,101428.97
2023-02-27T16:47:22.902Z,101438.78
2023-02-27T16:49:51.519Z,101438.88
2023-02-27T16:52:19.087Z,101431.62
2023-02-27T16:54:46.593Z,101438.91
2023-02-27T16:57:14.616Z,101389.63
2023-02-27T16:59:44.190Z,101388.81
2023-02-27T17:02:15.916Z,101447.37
2023-02-27T17:04:44.501Z,101455.41
2023-02-27T17:07:18.178Z,101442.56
2023-02-27T17:09:47.632Z,101448.13
2023-02-27T17:12:15.295Z,101394.19
2023-02-27T17:14:42.976Z,101457.00
2023-02-27T17:17:11.522Z,101451.97
2023-02-27T17:19:39.451Z,101443.34
2023-02-27T17:22:08.317Z,101399.31
2023-02-27T17:24:37.273Z,101439.91
2023-02-27T17:27:05.175Z,101439.81
2023-02-27T17:29:32.592Z,101435.72
2023-02-27T17:32:00.713Z,101448.84
2023-02-27T17:34:28.422Z,101462.78
2023-02-27T17:36:56.200Z,101449.03
2023-02-27T17:39:24.162Z,101453.69
2023-02-27T17:41:53.033Z,101452.22
2023-02-27T17:44:20.645Z,101459.19
2023-02-27T17:46:48.546Z,101456.00
2023-02-27T17:49:16.225Z,101474.03
2023-02-27T17:51:44.098Z,101475.72
2023-02-27T17:54:12.175Z,101472.47
2023-02-27T17:56:39.943Z,101474.94
2023-02-27T17:59:08.628Z,101476.88
2023-02-27T18:01:36.890Z,101470.47
2023-02-27T18:04:06.975Z,101492.31
2023-02-27T18:06:34.663Z,101480.56
2023-02-27T18:09:02.969Z,101470.63
2023-02-27T18:11:31.008Z,101478.56
2023-02-27T18:13:58.771Z,101479.03
2023-02-27T18:16:26.746Z,101432.50
2023-02-27T18:18:54.975Z,101478.81
2023-02-27T18:21:24.242Z,101480.66
2023-02-27T18:23:52.553Z,101473.34
2023-02-27T18:26:29.831Z,101470.13
2023-02-27T18:29:05.411Z,101476.25
2023-02-27T18:31:39.906Z,101499.03
2023-02-27T18:34:07.815Z,101508.59
2023-02-27T18:36:36.837Z,101505.41
2023-02-27T18:39:05.852Z,101508.59
2023-02-27T18:41:34.265Z,101517.31
2023-02-27T18:44:02.711Z,101520.91
2023-02-27T18:46:30.722Z,101525.94
2023-02-27T18:48:59.284Z,101522.03
2023-02-27T18:51:27.907Z,101521.41
2023-02-27T18:53:56.014Z,101526.41
2023-02-27T18:56:25.187Z,101541.03
2023-02-27T18:58:54.066Z,101547.34
2023-02-27T19:01:24.259Z,101547.34
2023-02-27T19:03:53.522Z,101552.41
2023-02-27T19:06:21.850Z,101546.44
2023-02-27T19:08:49.592Z,101509.94
2023-02-27T19:11:25.002Z,101551.56
2023-02-27T19:13:52.954Z,101552.53
2023-02-27T19:16:20.766Z,101551.03
2023-02-27T19:18:48.535Z,101561.00
2023-02-27T19:21:16.777Z,101558.53
2023-02-27T19:23:44.507Z,101567.38
2023-02-27T19:26:12.094Z,101560.00
2023-02-27T19:28:40.262Z,101519.38
2023-02-27T19:31:09.916Z,101563.16
2023-02-27T19:33:38.362Z,101555.87
2023-02-27T19:36:12.006Z,101482.16
2023-02-27T19:38:40.325Z,101547.34
2023-02-27T19:41:10.908Z,101556.06
2023-02-27T19:43:40.576Z,101555.13
2023-02-27T19:46:11.600Z,101508.69
2023-02-27T19:48:40.347Z,101569.22
2023-02-27T19:51:11.880Z,101556.50
2023-02-27T19:53:42.005Z,101561.06
2023-02-27T19:56:13.802Z,101564.56
2023-02-27T19:58:45.898Z,101569.78
2023-02-27T20:01:25.449Z,101565.63
2023-02-27T20:03:53.769Z,101563.81
2023-02-27T20:06:23.833Z,101575.16
2023-02-27T20:08:52.822Z,101576.91
2023-02-27T20:11:21.787Z,101516.09
2023-02-27T20:13:51.831Z,101569.09
2023-02-27T20:16:23.913Z,101579.28
2023-02-27T20:18:52.129Z,101594.34
2023-02-27T20:21:22.465Z,101595.19
2023-02-27T20:23:51.897Z,101599.59
2023-02-27T20:26:40.358Z,101614.34
2023-02-27T20:29:18.192Z,101541.84
2023-02-27T20:31:48.674Z,101601.25
2023-02-27T20:34:24.907Z,101592.22
2023-02-27T20:36:54.613Z,101585.38
2023-02-27T20:39:23.400Z,101584.53
2023-02-27T20:41:51.800Z,101587.62
2023-02-27T20:44:20.869Z,101525.81
2023-02-27T20:46:49.578Z,101582.63
2023-02-27T20:49:17.901Z,101574.41
2023-02-27T20:51:45.870Z,101594.41
2023-02-27T20:54:16.681Z,101587.44
2023-02-27T20:56:44.467Z,101593.56
2023-02-27T20:59:15.467Z,101591.66
2023-02-27T21:01:51.543Z,101598.47
2023-02-27T21:04:22.424Z,101609.47
2023-02-27T21:06:50.662Z,101551.94
2023-02-27T21:09:18.955Z,101612.19
2023-02-27T21:11:47.015Z,101608.03
2023-02-27T21:14:14.530Z,101602.75
2023-02-27T21:16:42.038Z,101588.41
2023-02-27T21:19:10.260Z,101593.56
2023-02-27T21:21:38.148Z,101590.94
2023-02-27T21:24:06.182Z,101572.13
2023-02-27T21:26:37.986Z,101597.31
2023-02-27T21:29:17.344Z,101596.31
2023-02-27T21:31:48.812Z,101539.41
2023-02-27T21:34:23.216Z,101591.81
2023-02-27T21:36:52.397Z,101588.56
2023-02-27T21:39:28.855Z,101590.34
2023-02-27T21:41:59.489Z,101592.78
2023-02-27T21:44:27.101Z,101559.13
2023-02-27T21:46:54.496Z,101595.53
2023-02-27T21:49:29.479Z,101553.34
2023-02-27T21:51:57.122Z,101597.22
2023-02-27T21:54:24.890Z,101602.72
2023-02-27T21:56:52.475Z,101609.63
2023-02-27T21:59:20.914Z,101607.03
2023-02-27T22:01:49.035Z,101612.34
2023-02-27T22:04:18.504Z,101615.53
2023-02-27T22:06:47.594Z,101625.84
2023-02-27T22:09:15.313Z,101623.19
2023-02-27T22:11:43.677Z,101627.75
2023-02-27T22:14:11.914Z,101630.19
2023-02-27T22:16:39.920Z,101638.75
2023-02-27T22:19:09.843Z,101642.19
2023-02-27T22:21:38.034Z,101647.53
2023-02-27T22:24:06.608Z,101650.63
2023-02-27T22:26:35.008Z,101652.31
2023-02-27T22:29:03.611Z,101664.34
2023-02-27T22:31:34.655Z,101666.50
2023-02-27T22:34:08.336Z,101616.66
2023-02-27T22:36:36.688Z,101663.72
2023-02-27T22:39:06.260Z,101666.41
2023-02-27T22:41:39.580Z,101668.78
2023-02-27T22:44:08.679Z,101678.25
2023-02-27T22:46:48.692Z,101664.59
2023-02-27T22:49:21.569Z,101681.72
2023-02-27T22:51:51.600Z,101681.53
2023-02-27T22:54:22.187Z,101686.72
2023-02-27T22:56:51.548Z,101684.47
2023-02-27T22:59:19.988Z,101682.56
2023-02-27T23:01:48.717Z,101694.13
2023-02-27T23:04:21.334Z,101688.16
2023-02-27T23:06:50.963Z,101687.34
2023-02-27T23:09:22.025Z,101691.63
2023-02-27T23:11:50.408Z,101694.16
2023-02-27T23:14:19.963Z,101696.91
2023-02-27T23:16:47.773Z,101700.19
2023-02-27T23:19:18.496Z,101711.41
2023-02-27T23:21:46.818Z,101713.62
2023-02-27T23:24:17.024Z,101720.56
2023-02-27T23:26:47.640Z,101716.25
2023-02-27T23:29:15.260Z,101713.91
2023-02-27T23:31:43.037Z,101721.41
2023-02-27T23:34:11.329Z,101730.16
2023-02-27T23:36:39.437Z,101678.81
2023-02-27T23:39:07.900Z,101731.50
2023-02-27T23:41:36.132Z,101737.78
2023-02-27T23:44:22.384Z,101730.06
2023-02-27T23:46:50.082Z,101739.75
2023-02-27T23:49:17.539Z,101740.19
2023-02-27T23:51:45.221Z,101692.16
2023-02-27T23:54:13.023Z,101745.94
2023-02-27T23:56:40.513Z,101745.13
2023-02-27T23:59:08.162Z,101747.50
